createdAt,value
2022-10-13T00:00:52.231Z,99891.47
2022-10-13T00:03:19.662Z,99872.03
2022-10-13T00:05:49.029Z,99902.78
2022-10-13T00:08:20.099Z,99889.56
2022-10-13T00:10:49.938Z,99882.53
2022-10-13T00:13:20.176Z,99875.44
2022-10-13T00:15:48.575Z,99866.63
2022-10-13T00:18:16.790Z,99893.13
2022-10-13T00:20:46.914Z,99895.69
2022-10-13T00:23:14.068Z,99901.72
2022-10-13T00:25:46.220Z,99892.84
2022-10-13T00:28:14.999Z,99870.66
2022-10-13T00:30:42.091Z,99885.56
2022-10-13T00:33:10.514Z,99886.31
2022-10-13T00:35:46.652Z,99883.66
2022-10-13T00:38:17.475Z,99906.41
2022-10-13T00:40:53.067Z,99888.75
2022-10-13T00:43:47.678Z,99907.22
2022-10-13T00:46:15.556Z,99907.06
2022-10-13T00:48:45.143Z,99893.59
2022-10-13T00:51:15.012Z,99919.84
2022-10-13T00:53:42.986Z,99899.31
2022-10-13T00:56:14.147Z,99923.13
2022-10-13T00:58:44.339Z,99923.00
2022-10-13T01:01:11.605Z,99901.72
2022-10-13T01:03:39.305Z,99924.59
2022-10-13T01:06:08.248Z,99918.28
2022-10-13T01:08:35.248Z,99918.00
2022-10-13T01:11:23.315Z,99910.00
2022-10-13T01:14:19.980Z,99929.28
2022-10-13T01:17:05.439Z,99926.56
2022-10-13T01:20:00.895Z,99926.44
2022-10-13T01:23:05.528Z,99929.78
2022-10-13T01:25:57.900Z,99929.63
2022-10-13T01:28:47.516Z,99926.03
2022-10-13T01:31:38.507Z,99928.56
2022-10-13T01:34:08.478Z,99926.72
2022-10-13T01:36:45.765Z,99925.81
2022-10-13T01:39:29.966Z,99897.47
2022-10-13T01:42:11.320Z,99919.56
2022-10-13T01:44:43.684Z,99919.56
2022-10-13T01:47:13.277Z,99932.75
2022-10-13T01:49:41.599Z,99935.25
2022-10-13T01:52:15.019Z,99937.75
2022-10-13T01:54:42.186Z,99901.41
2022-10-13T01:57:33.996Z,99933.06
2022-10-13T02:00:08.926Z,99947.84
2022-10-13T02:02:55.435Z,99949.41
2022-10-13T02:05:38.387Z,99943.22
2022-10-13T02:08:26.886Z,99948.25
2022-10-13T02:11:15.762Z,99933.97
2022-10-13T02:14:02.192Z,99943.50
2022-10-13T02:16:51.028Z,99921.41
2022-10-13T02:19:19.508Z,99925.72
2022-10-13T02:21:48.208Z,99951.41
2022-10-13T02:24:15.890Z,99948.78
2022-10-13T02:26:43.110Z,99894.97
2022-10-13T02:29:14.317Z,99945.59
2022-10-13T02:31:43.237Z,99958.66
2022-10-13T02:34:11.833Z,99960.31
2022-10-13T02:36:39.808Z,99922.31
2022-10-13T02:39:09.195Z,99948.84
2022-10-13T02:41:36.593Z,99958.31
2022-10-13T02:44:05.412Z,99961.69
2022-10-13T02:46:42.125Z,99925.19
2022-10-13T02:49:10.122Z,99949.88
2022-10-13T02:51:40.163Z,99963.72
2022-10-13T02:54:08.037Z,99969.72
2022-10-13T02:56:35.502Z,99968.81
2022-10-13T02:59:02.873Z,99967.75
2022-10-13T03:01:29.952Z,99965.94
2022-10-13T03:03:57.059Z,99953.56
2022-10-13T03:06:24.156Z,99943.78
2022-10-13T03:08:51.373Z,99935.00
2022-10-13T03:11:18.380Z,99971.97
2022-10-13T03:13:45.566Z,99952.50
2022-10-13T03:16:12.663Z,99931.44
2022-10-13T03:18:39.565Z,99971.06
2022-10-13T03:21:07.541Z,99954.34
2022-10-13T03:23:36.296Z,99965.66
2022-10-13T03:26:04.588Z,99928.63
2022-10-13T03:28:31.921Z,99966.59
2022-10-13T03:31:09.893Z,99960.41
2022-10-13T03:33:37.506Z,99970.97
2022-10-13T03:36:06.231Z,99977.09
2022-10-13T03:38:34.944Z,99976.13
2022-10-13T03:41:10.671Z,99966.66
2022-10-13T03:43:38.501Z,99960.28
2022-10-13T03:46:07.807Z,99976.28
2022-10-13T03:48:36.900Z,99981.50
2022-10-13T03:51:08.883Z,99956.91
2022-10-13T03:53:36.303Z,99932.22
2022-10-13T03:56:04.470Z,99983.41
2022-10-13T03:58:35.379Z,99954.34
2022-10-13T04:01:05.579Z,99979.09
2022-10-13T04:03:35.665Z,99966.94
2022-10-13T04:06:04.532Z,99946.56
2022-10-13T04:08:33.421Z,99938.66
2022-10-13T04:11:04.439Z,99923.75
2022-10-13T04:13:32.047Z,99899.00
2022-10-13T04:16:05.225Z,99950.44
2022-10-13T04:18:33.179Z,99971.91
2022-10-13T04:21:00.361Z,99901.13
2022-10-13T04:23:27.784Z,99970.28
2022-10-13T04:25:56.682Z,99908.44
2022-10-13T04:28:24.922Z,99895.34
2022-10-13T04:30:52.239Z,99955.53
2022-10-13T04:33:19.538Z,100011.34
2022-10-13T04:35:46.613Z,100013.28
2022-10-13T04:38:13.618Z,99997.53
2022-10-13T04:40:40.837Z,100015.50
2022-10-13T04:43:08.641Z,100005.94
2022-10-13T04:45:36.576Z,100006.22
2022-10-13T04:48:04.064Z,99998.31
2022-10-13T04:50:31.497Z,100014.41
2022-10-13T04:53:02.238Z,99999.44
2022-10-13T04:55:30.036Z,100016.44
2022-10-13T04:57:58.611Z,100005.91
2022-10-13T05:00:26.501Z,100024.63
2022-10-13T05:02:53.735Z,100030.75
2022-10-13T05:05:20.752Z,100030.88
2022-10-13T05:07:47.865Z,100006.16
2022-10-13T05:10:15.043Z,100027.41
2022-10-13T05:12:43.548Z,100004.44
2022-10-13T05:15:11.120Z,99992.00
2022-10-13T05:17:40.290Z,100029.16
2022-10-13T05:20:09.337Z,99983.38
2022-10-13T05:22:36.574Z,100038.22
2022-10-13T05:25:04.316Z,100047.41
2022-10-13T05:27:31.979Z,100004.28
2022-10-13T05:30:02.425Z,99993.06
2022-10-13T05:32:31.466Z,100010.09
2022-10-13T05:34:59.418Z,99995.22
2022-10-13T05:37:26.674Z,99990.00
2022-10-13T05:39:53.980Z,100018.31
2022-10-13T05:42:21.645Z,100016.78
2022-10-13T05:44:49.452Z,100043.38
2022-10-13T05:47:16.969Z,100011.66
2022-10-13T05:49:45.479Z,100043.47
2022-10-13T05:52:13.106Z,100006.69
2022-10-13T05:54:50.020Z,100035.09
2022-10-13T05:57:24.392Z,100052.81
2022-10-13T05:59:57.702Z,100027.34
2022-10-13T06:02:28.446Z,100055.53
2022-10-13T06:04:57.925Z,100011.47
2022-10-13T06:07:25.589Z,100056.50
2022-10-13T06:09:54.800Z,100049.44
2022-10-13T06:12:25.019Z,100054.75
2022-10-13T06:14:59.017Z,100003.41
2022-10-13T06:17:26.157Z,100003.34
2022-10-13T06:19:54.338Z,100028.16
2022-10-13T06:22:22.576Z,99943.25
2022-10-13T06:24:50.459Z,100034.94
2022-10-13T06:27:18.068Z,100070.28
2022-10-13T06:29:47.755Z,100066.88
2022-10-13T06:32:14.817Z,100067.06
2022-10-13T06:34:42.093Z,100048.69
2022-10-13T06:37:09.229Z,100051.34
2022-10-13T06:39:36.278Z,100035.16
2022-10-13T06:42:05.125Z,100023.72
2022-10-13T06:44:37.947Z,100058.22
2022-10-13T06:47:05.764Z,100047.06
2022-10-13T06:49:33.512Z,99996.03
2022-10-13T06:52:00.888Z,100063.19
2022-10-13T06:54:28.229Z,100032.13
2022-10-13T06:56:55.561Z,100075.25
2022-10-13T06:59:22.759Z,100059.44
2022-10-13T07:01:53.773Z,100012.88
2022-10-13T07:04:23.411Z,100010.34
2022-10-13T07:06:52.058Z,100081.97
2022-10-13T07:09:20.654Z,100072.53
2022-10-13T07:11:48.037Z,100022.34
2022-10-13T07:14:15.067Z,100077.97
2022-10-13T07:16:42.264Z,100051.69
2022-10-13T07:19:11.705Z,100063.34
2022-10-13T07:21:39.146Z,100040.53
2022-10-13T07:24:11.981Z,100038.81
2022-10-13T07:26:39.384Z,100061.53
2022-10-13T07:29:12.751Z,100058.59
2022-10-13T07:31:40.881Z,100085.09
2022-10-13T07:34:09.277Z,100073.63
2022-10-13T07:36:39.159Z,100000.19
2022-10-13T07:39:06.830Z,100083.16
2022-10-13T07:41:37.283Z,100063.00
2022-10-13T07:44:08.337Z,99949.88
2022-10-13T07:46:37.155Z,100036.94
2022-10-13T07:49:15.216Z,99968.22
2022-10-13T07:51:45.436Z,99985.03
2022-10-13T07:54:16.889Z,99902.47
2022-10-13T07:56:47.006Z,99989.09
2022-10-13T07:59:14.846Z,100019.19
2022-10-13T08:01:43.920Z,100088.94
2022-10-13T08:04:11.492Z,100074.91
2022-10-13T08:09:11.628Z,100055.94
2022-10-13T08:11:39.217Z,99975.66
2022-10-13T08:14:14.022Z,99902.47
2022-10-13T08:16:50.035Z,99922.03
2022-10-13T08:19:22.457Z,100060.81
2022-10-13T08:21:59.716Z,100030.38
2022-10-13T08:24:27.891Z,99997.25
2022-10-13T08:26:56.693Z,100074.16
2022-10-13T08:29:28.959Z,99928.13
2022-10-13T08:32:00.710Z,99968.81
2022-10-13T08:34:30.669Z,100010.25
2022-10-13T08:37:02.968Z,100008.66
2022-10-13T08:39:42.962Z,99918.09
2022-10-13T08:42:23.391Z,99976.25
2022-10-13T08:45:22.149Z,99959.56
2022-10-13T08:47:49.916Z,100089.78
2022-10-13T08:50:27.333Z,99968.19
2022-10-13T08:53:00.695Z,100012.16
2022-10-13T08:55:42.262Z,100082.53
2022-10-13T08:58:37.469Z,99998.00
2022-10-13T09:01:09.029Z,100098.38
2022-10-13T09:03:54.351Z,100066.63
2022-10-13T09:06:31.954Z,99988.97
2022-10-13T09:09:17.259Z,100102.59
2022-10-13T09:11:52.171Z,100085.94
2022-10-13T09:14:32.767Z,100088.69
2022-10-13T09:17:21.162Z,100024.56
2022-10-13T09:23:26.261Z,100084.59
2022-10-13T09:25:59.337Z,99953.41
2022-10-13T09:28:30.558Z,100059.88
2022-10-13T09:31:23.985Z,100083.56
2022-10-13T09:34:07.795Z,100058.72
2022-10-13T09:36:40.076Z,99918.63
2022-10-13T09:39:17.402Z,100005.66
2022-10-13T09:41:49.570Z,99950.16
2022-10-13T09:44:30.681Z,99956.22
2022-10-13T09:47:01.759Z,100013.31
2022-10-13T09:49:42.132Z,100100.38
2022-10-13T09:52:13.915Z,100098.66
2022-10-13T09:54:54.540Z,100067.78
2022-10-13T09:57:44.341Z,100045.03
2022-10-13T10:00:24.652Z,100098.00
2022-10-13T10:03:13.252Z,100081.41
2022-10-13T10:06:05.107Z,100034.91
2022-10-13T10:09:05.475Z,100098.53
2022-10-13T10:11:53.327Z,99968.00
2022-10-13T10:14:31.088Z,100093.00
2022-10-13T10:17:23.125Z,100100.78
2022-10-13T10:20:25.272Z,100100.69
2022-10-13T10:23:20.336Z,100070.63
2022-10-13T10:25:59.807Z,100041.56
2022-10-13T10:29:11.296Z,100081.34
2022-10-13T10:32:04.456Z,99994.00
2022-10-13T10:34:31.605Z,100091.88
2022-10-13T10:37:31.245Z,100003.94
2022-10-13T10:40:26.039Z,100094.88
2022-10-13T10:42:56.952Z,100100.13
2022-10-13T10:45:34.374Z,100061.44
2022-10-13T10:48:08.045Z,100075.69
2022-10-13T10:50:35.967Z,100037.03
2022-10-13T10:53:16.796Z,100078.41
2022-10-13T10:55:59.913Z,100086.28
2022-10-13T10:58:38.849Z,99982.50
2022-10-13T11:01:39.195Z,99972.81
2022-10-13T11:04:44.651Z,100062.47
2022-10-13T11:07:34.724Z,100082.47
2022-10-13T11:10:17.879Z,100087.47
2022-10-13T11:12:51.101Z,100076.47
2022-10-13T11:15:41.512Z,100077.69
2022-10-13T11:18:52.576Z,100067.56
2022-10-13T11:21:27.984Z,100026.28
2022-10-13T11:24:01.070Z,100053.56
2022-10-13T11:26:41.942Z,100067.88
2022-10-13T11:29:16.688Z,100065.84
2022-10-13T11:31:51.770Z,100042.09
2022-10-13T11:34:37.119Z,100005.00
2022-10-13T11:37:17.620Z,100059.13
2022-10-13T11:40:08.442Z,100073.91
2022-10-13T11:42:58.281Z,100076.38
2022-10-13T11:45:26.604Z,100080.41
2022-10-13T11:48:26.821Z,100054.22
2022-10-13T11:51:16.831Z,100064.00
2022-10-13T11:54:09.122Z,100057.88
2022-10-13T11:56:51.279Z,100067.59
2022-10-13T11:59:31.449Z,100049.94
2022-10-13T12:02:12.608Z,100064.19
2022-10-13T12:04:46.493Z,100063.53
2022-10-13T12:07:16.299Z,99995.09
2022-10-13T12:09:56.048Z,100052.97
2022-10-13T12:12:30.624Z,100067.91
2022-10-13T12:15:04.165Z,99927.66
2022-10-13T12:17:42.079Z,99934.47
2022-10-13T12:20:39.037Z,100060.56
2022-10-13T12:23:17.959Z,100009.69
2022-10-13T12:25:49.422Z,100046.31
2022-10-13T12:28:22.367Z,100001.19
2022-10-13T12:31:04.062Z,99896.88
2022-10-13T12:33:37.467Z,100011.44
2022-10-13T12:36:30.482Z,100055.72
2022-10-13T12:39:24.051Z,100032.34
2022-10-13T12:41:54.902Z,99956.63
2022-10-13T12:44:29.379Z,100048.44
2022-10-13T12:47:24.869Z,100065.16
2022-10-13T12:49:52.164Z,100027.59
2022-10-13T12:52:25.084Z,99997.38
2022-10-13T12:54:58.357Z,100053.03
2022-10-13T12:57:37.959Z,99965.34
2022-10-13T13:00:22.888Z,100064.59
2022-10-13T13:03:06.398Z,100050.63
2022-10-13T13:05:51.562Z,100065.50
2022-10-13T13:08:30.138Z,100069.03
2022-10-13T13:11:02.117Z,100016.53
2022-10-13T13:13:30.431Z,100051.78
2022-10-13T13:16:20.191Z,100057.16
2022-10-13T13:18:49.112Z,100024.72
2022-10-13T13:21:19.998Z,100056.34
2022-10-13T13:23:53.037Z,100050.16
2022-10-13T13:26:23.824Z,100048.22
2022-10-13T13:28:56.159Z,100046.75
2022-10-13T13:31:26.105Z,100052.31
2022-10-13T13:33:53.546Z,100069.25
2022-10-13T13:36:23.279Z,100038.63
2022-10-13T13:38:54.114Z,100073.91
2022-10-13T13:41:21.562Z,100040.50
2022-10-13T13:43:49.787Z,100070.47
2022-10-13T13:46:23.083Z,100057.28
2022-10-13T13:48:51.058Z,100052.00
2022-10-13T13:51:18.772Z,100049.38
2022-10-13T13:53:46.524Z,100052.00
2022-10-13T13:56:16.267Z,100063.41
2022-10-13T13:58:44.381Z,100054.59
2022-10-13T14:01:13.240Z,100068.72
2022-10-13T14:03:41.985Z,100065.22
2022-10-13T14:06:19.077Z,100070.47
2022-10-13T14:08:46.781Z,100078.31
2022-10-13T14:11:13.787Z,100084.44
2022-10-13T14:13:40.854Z,100036.78
2022-10-13T14:16:17.212Z,100092.09
2022-10-13T14:18:44.395Z,100063.75
2022-10-13T14:21:12.318Z,100087.44
2022-10-13T14:23:40.505Z,100046.81
2022-10-13T14:26:09.795Z,100094.28
2022-10-13T14:28:36.903Z,100050.19
2022-10-13T14:31:07.735Z,100101.28
2022-10-13T14:33:36.402Z,100101.22
2022-10-13T14:36:06.748Z,100062.47
2022-10-13T14:38:34.893Z,100076.53
2022-10-13T14:41:03.289Z,100097.66
2022-10-13T14:43:31.401Z,100097.56
2022-10-13T14:46:03.865Z,100101.03
2022-10-13T14:48:37.027Z,100089.50
2022-10-13T14:51:08.847Z,100095.59
2022-10-13T14:53:38.383Z,100117.47
2022-10-13T14:56:20.432Z,100112.06
2022-10-13T14:58:56.327Z,100093.28
2022-10-13T15:01:27.365Z,100130.06
2022-10-13T15:03:55.031Z,100131.72
2022-10-13T15:06:24.679Z,100098.84
2022-10-13T15:08:53.000Z,100069.53
2022-10-13T15:11:28.172Z,100042.03
2022-10-13T15:13:57.170Z,100108.94
2022-10-13T15:16:29.189Z,100090.31
2022-10-13T15:18:57.756Z,100087.56
2022-10-13T15:21:36.628Z,100073.13
2022-10-13T15:24:04.603Z,100141.03
2022-10-13T15:26:34.570Z,100050.84
2022-10-13T15:29:05.336Z,100149.69
2022-10-13T15:31:36.194Z,100123.19
2022-10-13T15:34:07.274Z,100017.94
2022-10-13T15:36:34.731Z,99964.22
2022-10-13T15:39:02.863Z,100155.72
2022-10-13T15:41:29.969Z,100071.78
2022-10-13T15:43:57.162Z,100144.09
2022-10-13T15:46:26.243Z,100151.00
2022-10-13T15:48:55.274Z,100117.34
2022-10-13T15:51:27.119Z,100160.63
2022-10-13T15:54:10.385Z,100136.78
2022-10-13T15:56:45.456Z,99999.75
2022-10-13T15:59:21.302Z,100157.09
2022-10-13T16:01:52.152Z,100001.53
2022-10-13T16:04:31.288Z,100149.63
2022-10-13T16:07:04.452Z,100039.19
2022-10-13T16:09:50.067Z,100100.75
2022-10-13T16:12:27.920Z,100006.81
2022-10-13T16:15:05.761Z,100055.13
2022-10-13T16:17:39.812Z,100162.06
2022-10-13T16:20:08.351Z,100169.75
2022-10-13T16:22:48.955Z,100106.50
2022-10-13T16:25:23.007Z,100012.56
2022-10-13T16:27:50.611Z,100066.06
2022-10-13T16:30:30.579Z,100155.25
2022-10-13T16:32:58.311Z,100164.09
2022-10-13T16:35:29.728Z,100155.13
2022-10-13T16:38:13.683Z,100014.13
2022-10-13T16:40:46.042Z,100092.84
2022-10-13T16:43:17.183Z,100188.94
2022-10-13T16:46:02.154Z,100090.63
2022-10-13T16:48:33.046Z,100140.00
2022-10-13T16:51:05.658Z,100079.03
2022-10-13T16:53:46.313Z,99990.38
2022-10-13T16:56:35.977Z,99980.81
2022-10-13T16:59:13.867Z,99995.59
2022-10-13T17:01:58.021Z,99973.50
2022-10-13T17:04:50.516Z,100051.81
2022-10-13T17:07:37.919Z,100092.53
2022-10-13T17:10:25.475Z,100028.63
2022-10-13T17:13:17.214Z,100098.47
2022-10-13T17:16:09.591Z,99991.44
2022-10-13T17:18:48.831Z,100125.56
2022-10-13T17:21:22.383Z,100104.19
2022-10-13T17:24:15.925Z,100136.13
2022-10-13T17:26:50.898Z,100021.81
2022-10-13T17:29:18.146Z,100174.03
2022-10-13T17:31:45.764Z,100179.50
2022-10-13T17:34:13.079Z,100167.25
2022-10-13T17:36:42.035Z,100140.81
2022-10-13T17:39:11.718Z,100123.28
2022-10-13T17:41:50.557Z,100145.66
2022-10-13T17:44:21.300Z,100117.50
2022-10-13T17:46:51.923Z,100138.97
2022-10-13T17:49:20.201Z,100177.00
2022-10-13T17:51:51.991Z,100184.91
2022-10-13T17:54:20.210Z,100180.69
2022-10-13T17:56:50.718Z,100149.75
2022-10-13T17:59:22.039Z,100163.22
2022-10-13T18:01:52.556Z,100151.69
2022-10-13T18:04:22.503Z,100168.38
2022-10-13T18:06:55.928Z,100130.41
2022-10-13T18:09:25.170Z,100173.38
2022-10-13T18:11:55.793Z,100116.81
2022-10-13T18:14:27.807Z,100044.31
2022-10-13T18:17:35.051Z,100157.31
2022-10-13T18:20:07.564Z,100181.94
2022-10-13T18:22:38.509Z,100158.88
2022-10-13T18:25:06.722Z,100173.22
2022-10-13T18:27:34.400Z,100176.72
2022-10-13T18:30:02.975Z,100153.75
2022-10-13T18:32:34.096Z,100127.91
2022-10-13T18:35:02.892Z,100108.25
2022-10-13T18:37:30.784Z,100139.25
2022-10-13T18:40:02.719Z,100174.19
2022-10-13T18:42:30.627Z,100174.84
2022-10-13T18:44:59.838Z,100189.78
2022-10-13T18:47:27.317Z,100150.63
2022-10-13T18:49:54.565Z,100178.97
2022-10-13T18:52:23.371Z,100193.09
2022-10-13T18:54:50.933Z,100193.34
2022-10-13T18:57:18.883Z,100168.63
2022-10-13T18:59:48.002Z,100198.72
2022-10-13T19:02:15.840Z,100190.88
2022-10-13T19:04:42.871Z,100171.53
2022-10-13T19:07:10.108Z,100176.88
2022-10-13T19:09:38.301Z,100186.75
2022-10-13T19:12:05.592Z,100165.69
2022-10-13T19:14:34.183Z,100193.09
2022-10-13T19:17:02.384Z,100178.09
2022-10-13T19:19:30.096Z,100165.69
2022-10-13T19:21:58.004Z,100193.81
2022-10-13T19:24:25.693Z,100197.97
2022-10-13T19:26:56.175Z,100162.47
2022-10-13T19:29:24.735Z,100190.72
2022-10-13T19:31:51.937Z,100191.38
2022-10-13T19:34:19.681Z,100188.72
2022-10-13T19:36:47.416Z,100176.22
2022-10-13T19:39:22.754Z,100196.72
2022-10-13T19:41:51.657Z,100195.00
2022-10-13T19:44:20.970Z,100197.66
2022-10-13T19:46:48.451Z,100188.16
2022-10-13T19:49:17.940Z,100196.06
2022-10-13T19:51:46.408Z,100189.13
2022-10-13T19:54:14.548Z,100179.41
2022-10-13T19:56:45.148Z,100196.94
2022-10-13T19:59:12.198Z,100195.19
2022-10-13T20:01:41.129Z,100196.84
2022-10-13T20:04:15.622Z,100190.72
2022-10-13T20:06:44.703Z,100176.41
2022-10-13T20:09:12.196Z,100209.03
2022-10-13T20:11:39.321Z,100176.47
2022-10-13T20:14:06.538Z,100194.03
2022-10-13T20:16:34.174Z,100202.94
2022-10-13T20:19:01.370Z,100172.78
2022-10-13T20:21:29.656Z,100205.56
2022-10-13T20:23:57.655Z,100159.78
2022-10-13T20:26:26.283Z,100173.94
2022-10-13T20:28:54.546Z,100163.13
2022-10-13T20:31:23.392Z,100197.72
2022-10-13T20:33:58.449Z,100191.59
2022-10-13T20:36:34.731Z,100201.38
2022-10-13T20:39:05.526Z,100205.72
2022-10-13T20:41:33.626Z,100208.31
2022-10-13T20:44:01.992Z,100163.19
2022-10-13T20:46:31.627Z,100199.47
2022-10-13T20:49:10.285Z,100173.59
2022-10-13T20:51:37.906Z,100202.78
2022-10-13T20:54:05.195Z,100210.69
2022-10-13T20:56:32.460Z,100217.69
2022-10-13T20:59:07.748Z,100210.63
2022-10-13T21:01:35.771Z,100219.38
2022-10-13T21:04:03.415Z,100204.25
2022-10-13T21:06:30.814Z,100214.09
2022-10-13T21:09:00.856Z,100220.19
2022-10-13T21:11:27.972Z,100219.28
2022-10-13T21:13:55.055Z,100204.03
2022-10-13T21:16:28.241Z,100216.50
2022-10-13T21:18:57.877Z,100198.66
2022-10-13T21:21:28.135Z,100212.94
2022-10-13T21:24:00.620Z,100217.44
2022-10-13T21:26:29.962Z,100183.53
2022-10-13T21:28:58.328Z,100210.06
2022-10-13T21:31:26.140Z,100219.72
2022-10-13T21:33:53.828Z,100170.22
2022-10-13T21:36:26.608Z,100220.63
2022-10-13T21:39:00.271Z,100179.84
2022-10-13T21:41:28.430Z,100223.25
2022-10-13T21:43:56.374Z,100184.28
2022-10-13T21:46:26.052Z,100206.34
2022-10-13T21:48:58.756Z,100231.06
2022-10-13T21:51:29.939Z,100221.28
2022-10-13T21:54:03.263Z,100222.00
2022-10-13T21:56:31.917Z,100221.16
2022-10-13T21:58:59.947Z,100200.00
2022-10-13T22:01:27.725Z,100225.69
2022-10-13T22:03:57.173Z,100216.34
2022-10-13T22:06:29.050Z,100185.28
2022-10-13T22:08:57.968Z,100224.94
2022-10-13T22:11:28.189Z,100230.28
2022-10-13T22:13:58.767Z,100220.53
2022-10-13T22:16:34.188Z,100204.78
2022-10-13T22:19:01.684Z,100224.25
2022-10-13T22:21:31.452Z,100226.91
2022-10-13T22:24:04.433Z,100215.16
2022-10-13T22:26:33.918Z,100223.91
2022-10-13T22:29:02.763Z,100228.25
2022-10-13T22:31:30.792Z,100224.56
2022-10-13T22:33:59.334Z,100223.56
2022-10-13T22:36:28.266Z,100238.66
2022-10-13T22:38:58.440Z,100239.56
2022-10-13T22:41:25.844Z,100225.38
2022-10-13T22:43:54.661Z,100234.44
2022-10-13T22:46:25.339Z,100228.25
2022-10-13T22:48:52.848Z,100244.25
2022-10-13T22:51:21.947Z,100235.66
2022-10-13T22:53:50.018Z,100241.78
2022-10-13T22:56:21.001Z,100212.69
2022-10-13T22:58:52.724Z,100236.66
2022-10-13T23:01:20.699Z,100218.97
2022-10-13T23:03:49.954Z,100240.19
2022-10-13T23:06:20.321Z,100237.41
2022-10-13T23:08:48.423Z,100217.00
2022-10-13T23:11:16.123Z,100237.38
2022-10-13T23:13:43.518Z,100238.16
2022-10-13T23:16:13.759Z,100245.09
2022-10-13T23:18:43.316Z,100243.34
2022-10-13T23:21:26.570Z,100230.97
2022-10-13T23:23:56.030Z,100230.97
2022-10-13T23:26:24.176Z,100245.84
2022-10-13T23:28:51.663Z,100246.75
2022-10-13T23:31:19.048Z,100237.16
2022-10-13T23:33:46.472Z,100227.34
2022-10-13T23:36:17.143Z,100239.72
2022-10-13T23:38:48.714Z,100238.88
2022-10-13T23:41:16.721Z,100245.16
2022-10-13T23:43:44.155Z,100252.09
2022-10-13T23:46:11.711Z,100244.16
2022-10-13T23:48:39.967Z,100253.69
2022-10-13T23:51:12.722Z,100256.28
2022-10-13T23:53:41.818Z,100254.50
2022-10-13T23:56:10.388Z,100237.53
2022-10-13T23:58:39.276Z,100241.38
